createdAt,value
2022-08-25T00:00:41.155Z,38.51
2022-08-25T00:01:41.148Z,39.80
2022-08-25T00:02:41.172Z,42.54
2022-08-25T00:03:42.130Z,45.12
2022-08-25T00:04:41.149Z,41.73
2022-08-25T00:05:41.183Z,44.15
2022-08-25T00:06:41.110Z,44.15
2022-08-25T00:07:41.098Z,49.31
2022-08-25T00:08:41.093Z,46.41
2022-08-25T00:09:41.103Z,41.09
2022-08-25T00:10:41.074Z,42.38
2022-08-25T00:11:41.068Z,44.96
2022-08-25T00:12:41.067Z,46.25
2022-08-25T00:13:41.050Z,48.98
2022-08-25T00:14:41.070Z,46.41
2022-08-25T00:15:41.058Z,42.38
2022-08-25T00:16:41.029Z,44.31
2022-08-25T00:17:41.022Z,44.63
2022-08-25T00:18:41.017Z,44.47
2022-08-25T00:19:41.029Z,42.70
2022-08-25T00:20:40.999Z,38.99
2022-08-25T00:21:41.990Z,40.28
2022-08-25T00:22:40.982Z,39.32
2022-08-25T00:23:40.971Z,39.96
2022-08-25T00:24:40.990Z,37.71
2022-08-25T00:25:40.955Z,37.22
2022-08-25T00:26:41.948Z,41.73
2022-08-25T00:27:40.946Z,43.34
2022-08-25T00:28:40.943Z,39.96
2022-08-25T00:29:40.948Z,38.51
2022-08-25T00:30:40.956Z,39.48
2022-08-25T00:31:40.924Z,44.63
2022-08-25T00:32:40.905Z,40.44
2022-08-25T00:33:40.893Z,41.73
2022-08-25T00:34:40.919Z,54.46
2022-08-25T00:35:40.876Z,49.31
2022-08-25T00:36:40.888Z,44.31
2022-08-25T00:37:40.862Z,39.96
2022-08-25T00:38:40.854Z,42.54
2022-08-25T00:39:40.878Z,39.64
2022-08-25T00:40:40.836Z,36.25
2022-08-25T00:41:40.827Z,36.09
2022-08-25T00:42:40.824Z,46.25
2022-08-25T00:43:40.810Z,47.21
2022-08-25T00:44:40.806Z,40.61
2022-08-25T00:45:40.825Z,37.87
2022-08-25T00:46:40.823Z,41.41
2022-08-25T00:47:40.781Z,53.66
2022-08-25T00:48:40.781Z,50.92
2022-08-25T00:49:40.761Z,47.53
2022-08-25T00:50:40.779Z,36.42
2022-08-25T00:51:40.759Z,37.87
2022-08-25T00:52:40.745Z,36.25
2022-08-25T00:53:40.732Z,43.99
2022-08-25T00:54:40.724Z,51.56
2022-08-25T00:55:40.735Z,47.86
2022-08-25T00:56:40.715Z,46.25
2022-08-25T00:57:40.720Z,48.50
2022-08-25T00:58:40.698Z,51.24
2022-08-25T00:59:40.710Z,47.86
2022-08-25T01:00:40.677Z,44.79
2022-08-25T01:01:40.710Z,47.86
2022-08-25T01:02:40.722Z,42.06
2022-08-25T01:03:40.653Z,46.08
2022-08-25T01:04:42.811Z,48.02
2022-08-25T01:05:41.639Z,56.24
2022-08-25T01:06:40.630Z,52.69
2022-08-25T01:07:40.622Z,46.41
2022-08-25T01:08:40.632Z,57.04
2022-08-25T01:09:40.629Z,53.17
2022-08-25T01:10:40.596Z,42.22
2022-08-25T01:11:40.588Z,46.73
2022-08-25T01:12:40.584Z,48.66
2022-08-25T01:13:40.566Z,49.95
2022-08-25T01:14:40.591Z,45.92
2022-08-25T01:15:40.647Z,44.31
2022-08-25T01:16:40.548Z,38.19
2022-08-25T01:17:40.542Z,41.41
2022-08-25T01:18:40.530Z,41.89
2022-08-25T01:19:40.551Z,41.09
2022-08-25T01:20:40.514Z,44.15
2022-08-25T01:21:40.513Z,41.89
2022-08-25T01:22:40.501Z,40.61
2022-08-25T01:23:40.489Z,44.79
2022-08-25T01:24:40.510Z,42.86
2022-08-25T01:25:40.481Z,48.34
2022-08-25T01:26:40.467Z,44.79
2022-08-25T01:27:40.463Z,37.71
2022-08-25T01:28:40.454Z,36.74
2022-08-25T01:29:40.471Z,45.60
2022-08-25T01:30:40.475Z,48.50
2022-08-25T01:31:40.477Z,51.24
2022-08-25T01:32:40.420Z,47.86
2022-08-25T01:33:40.410Z,48.98
2022-08-25T01:34:40.434Z,47.05
2022-08-25T01:35:40.394Z,45.44
2022-08-25T01:36:40.391Z,41.25
2022-08-25T01:37:40.379Z,44.15
2022-08-25T01:38:40.370Z,51.88
2022-08-25T01:39:40.389Z,52.05
2022-08-25T01:40:40.358Z,42.54
2022-08-25T01:41:40.347Z,41.73
2022-08-25T01:42:40.339Z,42.22
2022-08-25T01:43:40.333Z,44.79
2022-08-25T01:44:40.360Z,45.12
2022-08-25T01:45:40.325Z,44.63
2022-08-25T01:46:40.308Z,45.92
2022-08-25T01:47:40.299Z,39.16
2022-08-25T01:48:40.295Z,44.79
2022-08-25T01:49:40.310Z,47.70
2022-08-25T01:50:40.275Z,48.66
2022-08-25T01:51:40.276Z,48.82
2022-08-25T01:52:40.265Z,47.21
2022-08-25T01:53:40.254Z,48.50
2022-08-25T01:54:40.269Z,49.79
2022-08-25T01:55:40.239Z,47.53
2022-08-25T01:56:40.227Z,39.32
2022-08-25T01:57:40.223Z,41.09
2022-08-25T01:58:40.212Z,47.05
2022-08-25T01:59:40.233Z,43.99
2022-08-25T02:00:40.196Z,41.57
2022-08-25T02:01:40.256Z,44.15
2022-08-25T02:02:42.689Z,45.28
2022-08-25T02:03:42.285Z,49.79
2022-08-25T02:04:44.240Z,50.11
2022-08-25T02:05:40.160Z,44.15
2022-08-25T02:06:40.151Z,41.41
2022-08-25T02:07:40.142Z,42.86
2022-08-25T02:08:40.138Z,50.27
2022-08-25T02:09:40.162Z,54.14
2022-08-25T02:10:40.119Z,42.70
2022-08-25T02:11:40.113Z,43.67
2022-08-25T02:12:40.102Z,55.43
2022-08-25T02:13:40.095Z,45.44
2022-08-25T02:14:40.121Z,44.63
2022-08-25T02:15:40.078Z,45.60
2022-08-25T02:16:40.097Z,48.02
2022-08-25T02:17:40.060Z,46.89
2022-08-25T02:18:40.055Z,43.18
2022-08-25T02:19:40.052Z,41.57
2022-08-25T02:20:40.064Z,37.87
2022-08-25T02:21:40.035Z,37.54
2022-08-25T02:22:40.025Z,42.22
2022-08-25T02:23:40.019Z,45.44
2022-08-25T02:24:40.014Z,46.89
2022-08-25T02:25:40.031Z,43.51
2022-08-25T02:26:39.990Z,45.28
2022-08-25T02:27:39.982Z,46.08
2022-08-25T02:28:39.981Z,49.95
2022-08-25T02:29:39.969Z,53.50
2022-08-25T02:30:40.025Z,51.56
2022-08-25T02:31:39.952Z,47.05
2022-08-25T02:32:39.940Z,48.50
2022-08-25T02:33:39.935Z,51.40
2022-08-25T02:34:39.928Z,54.14
2022-08-25T02:35:39.950Z,50.27
2022-08-25T02:36:39.913Z,49.47
2022-08-25T02:37:39.907Z,53.01
2022-08-25T02:38:39.902Z,50.76
2022-08-25T02:39:39.891Z,44.47
2022-08-25T02:40:39.909Z,45.28
2022-08-25T02:41:39.881Z,43.67
2022-08-25T02:42:39.870Z,45.60
2022-08-25T02:43:39.861Z,51.24
2022-08-25T02:44:39.854Z,47.05
2022-08-25T02:45:39.946Z,47.86
2022-08-25T02:46:39.839Z,43.51
2022-08-25T02:47:39.831Z,49.31
2022-08-25T02:48:39.823Z,47.05
2022-08-25T02:49:39.818Z,49.47
2022-08-25T02:50:39.836Z,42.86
2022-08-25T02:51:39.801Z,50.43
2022-08-25T02:52:39.799Z,55.91
2022-08-25T02:53:39.791Z,51.40
2022-08-25T02:54:39.785Z,52.53
2022-08-25T02:55:39.799Z,53.50
2022-08-25T02:56:39.766Z,51.72
2022-08-25T02:57:39.756Z,50.92
2022-08-25T02:58:39.745Z,51.40
2022-08-25T02:59:39.739Z,49.79
2022-08-25T03:00:39.757Z,55.43
2022-08-25T03:01:39.755Z,53.98
2022-08-25T03:02:39.730Z,48.34
2022-08-25T03:03:39.849Z,47.70
2022-08-25T03:04:39.776Z,47.21
2022-08-25T03:05:39.730Z,52.53
2022-08-25T03:06:39.689Z,55.91
2022-08-25T03:07:39.797Z,49.95
2022-08-25T03:08:39.675Z,54.14
2022-08-25T03:09:39.666Z,51.56
2022-08-25T03:10:39.684Z,48.50
2022-08-25T03:11:39.645Z,57.20
2022-08-25T03:12:39.650Z,53.98
2022-08-25T03:13:39.631Z,49.63
2022-08-25T03:14:39.624Z,48.66
2022-08-25T03:15:39.647Z,53.33
2022-08-25T03:16:39.762Z,48.02
2022-08-25T03:17:39.605Z,55.11
2022-08-25T03:18:39.594Z,54.62
2022-08-25T03:19:39.588Z,52.05
2022-08-25T03:20:39.608Z,49.79
2022-08-25T03:21:39.572Z,49.47
2022-08-25T03:22:39.567Z,49.95
2022-08-25T03:23:39.562Z,50.76
2022-08-25T03:24:39.548Z,49.15
2022-08-25T03:25:39.570Z,50.43
2022-08-25T03:26:39.558Z,53.33
2022-08-25T03:27:39.524Z,49.95
2022-08-25T03:28:39.520Z,49.95
2022-08-25T03:29:39.512Z,47.86
2022-08-25T03:30:39.527Z,53.01
2022-08-25T03:31:39.605Z,57.85
2022-08-25T03:32:39.489Z,48.18
2022-08-25T03:33:39.479Z,50.27
2022-08-25T03:34:39.475Z,51.88
2022-08-25T03:35:39.492Z,55.75
2022-08-25T03:36:39.458Z,51.40
2022-08-25T03:37:39.449Z,53.50
2022-08-25T03:38:39.444Z,49.95
2022-08-25T03:39:39.444Z,53.82
2022-08-25T03:40:39.468Z,52.69
2022-08-25T03:41:39.421Z,52.37
2022-08-25T03:42:43.296Z,58.33
2022-08-25T03:43:40.407Z,57.20
2022-08-25T03:44:39.402Z,53.66
2022-08-25T03:45:39.419Z,54.14
2022-08-25T03:46:39.408Z,53.01
2022-08-25T03:47:39.375Z,53.33
2022-08-25T03:48:39.365Z,57.20
2022-08-25T03:49:39.366Z,53.50
2022-08-25T03:50:39.359Z,58.33
2022-08-25T03:51:39.375Z,58.49
2022-08-25T03:52:42.610Z,53.98
2022-08-25T03:53:40.335Z,53.01
2022-08-25T03:54:39.321Z,59.62
2022-08-25T03:55:39.317Z,56.24
2022-08-25T03:56:39.338Z,51.56
2022-08-25T03:57:39.304Z,51.08
2022-08-25T03:58:39.290Z,52.21
2022-08-25T03:59:39.285Z,50.60
2022-08-25T04:00:39.281Z,52.85
2022-08-25T04:01:39.378Z,51.24
2022-08-25T04:02:39.314Z,52.53
2022-08-25T04:03:39.257Z,54.62
2022-08-25T04:04:39.244Z,57.69
2022-08-25T04:05:39.244Z,53.33
2022-08-25T04:06:39.258Z,52.53
2022-08-25T04:07:39.221Z,50.11
2022-08-25T04:08:39.212Z,53.82
2022-08-25T04:09:39.204Z,57.69
2022-08-25T04:10:39.198Z,54.79
2022-08-25T04:11:39.215Z,52.53
2022-08-25T04:12:39.179Z,53.50
2022-08-25T04:13:39.172Z,55.59
2022-08-25T04:14:39.166Z,55.91
2022-08-25T04:15:39.153Z,58.49
2022-08-25T04:16:39.194Z,53.33
2022-08-25T04:17:39.141Z,56.40
2022-08-25T04:18:39.137Z,56.40
2022-08-25T04:19:39.129Z,53.66
2022-08-25T04:20:42.206Z,54.46
2022-08-25T04:21:40.137Z,56.24
2022-08-25T04:22:39.099Z,53.98
2022-08-25T04:23:40.093Z,56.07
2022-08-25T04:24:39.085Z,58.33
2022-08-25T04:25:39.066Z,56.72
2022-08-25T04:26:40.094Z,57.04
2022-08-25T04:27:39.061Z,56.07
2022-08-25T04:28:39.056Z,59.62
2022-08-25T04:29:39.046Z,53.17
2022-08-25T04:30:39.038Z,53.82
2022-08-25T04:31:39.132Z,54.46
2022-08-25T04:32:39.022Z,56.07
2022-08-25T04:33:39.020Z,53.82
2022-08-25T04:34:39.002Z,54.62
2022-08-25T04:35:38.998Z,57.85
2022-08-25T04:36:39.020Z,55.43
2022-08-25T04:37:39.023Z,57.04
2022-08-25T04:38:38.979Z,58.97
2022-08-25T04:39:38.971Z,56.56
2022-08-25T04:40:38.967Z,54.62
2022-08-25T04:41:38.978Z,58.81
2022-08-25T04:42:38.950Z,52.69
2022-08-25T04:43:38.938Z,50.60
2022-08-25T04:44:38.929Z,52.69
2022-08-25T04:45:38.967Z,59.14
2022-08-25T04:46:38.943Z,57.36
2022-08-25T04:47:38.905Z,53.66
2022-08-25T04:48:38.898Z,58.33
2022-08-25T04:49:38.890Z,57.69
2022-08-25T04:50:38.882Z,59.78
2022-08-25T04:51:38.899Z,54.14
2022-08-25T04:52:38.866Z,54.14
2022-08-25T04:53:38.858Z,57.52
2022-08-25T04:54:38.850Z,61.39
2022-08-25T04:55:38.843Z,57.20
2022-08-25T04:56:38.866Z,55.91
2022-08-25T04:57:38.828Z,56.56
2022-08-25T04:58:38.821Z,54.46
2022-08-25T04:59:38.815Z,53.33
2022-08-25T05:00:38.816Z,55.11
2022-08-25T05:01:38.832Z,56.88
2022-08-25T05:02:38.786Z,59.78
2022-08-25T05:03:38.782Z,57.69
2022-08-25T05:04:38.842Z,57.36
2022-08-25T05:05:38.770Z,57.04
2022-08-25T05:06:38.756Z,56.88
2022-08-25T05:07:38.774Z,58.33
2022-08-25T05:08:38.745Z,60.75
2022-08-25T05:09:38.737Z,54.46
2022-08-25T05:10:38.727Z,59.94
2022-08-25T05:11:38.718Z,55.11
2022-08-25T05:12:38.733Z,52.69
2022-08-25T05:13:38.699Z,52.37
2022-08-25T05:14:38.693Z,59.30
2022-08-25T05:15:38.686Z,60.42
2022-08-25T05:16:38.725Z,51.88
2022-08-25T05:17:38.697Z,52.85
2022-08-25T05:18:38.659Z,51.24
2022-08-25T05:19:38.656Z,56.07
2022-08-25T05:20:38.646Z,51.08
2022-08-25T05:21:38.638Z,57.20
2022-08-25T05:22:38.657Z,53.01
2022-08-25T05:23:38.623Z,55.43
2022-08-25T05:24:38.617Z,51.56
2022-08-25T05:25:38.608Z,56.72
2022-08-25T05:26:38.601Z,52.05
2022-08-25T05:27:38.623Z,56.72
2022-08-25T05:28:38.586Z,54.79
2022-08-25T05:29:38.582Z,56.56
2022-08-25T05:30:38.576Z,51.56
2022-08-25T05:31:42.315Z,51.08
2022-08-25T05:32:39.585Z,49.79
2022-08-25T05:33:38.552Z,52.21
2022-08-25T05:34:38.541Z,51.72
2022-08-25T05:35:38.536Z,57.20
2022-08-25T05:36:38.529Z,51.88
2022-08-25T05:37:38.547Z,55.43
2022-08-25T05:38:38.511Z,56.72
2022-08-25T05:39:38.504Z,49.63
2022-08-25T05:40:38.494Z,50.76
2022-08-25T05:41:38.488Z,55.91
2022-08-25T05:42:38.507Z,51.88
2022-08-25T05:43:38.474Z,53.66
2022-08-25T05:44:38.468Z,55.11
2022-08-25T05:45:38.496Z,48.50
2022-08-25T05:46:38.450Z,53.17
2022-08-25T05:47:38.471Z,55.75
2022-08-25T05:48:38.442Z,54.14
2022-08-25T05:49:38.431Z,50.76
2022-08-25T05:50:38.425Z,48.18
2022-08-25T05:51:38.421Z,53.66
2022-08-25T05:52:38.433Z,51.56
2022-08-25T05:53:38.407Z,51.08
2022-08-25T05:54:38.391Z,48.66
2022-08-25T05:55:38.385Z,53.98
2022-08-25T05:56:38.375Z,52.69
2022-08-25T05:57:38.393Z,48.18
2022-08-25T05:58:38.361Z,52.69
2022-08-25T05:59:38.355Z,53.82
2022-08-25T06:00:38.359Z,51.24
2022-08-25T06:01:38.348Z,48.66
2022-08-25T06:02:38.357Z,48.98
2022-08-25T06:03:38.387Z,53.66
2022-08-25T06:04:41.188Z,51.24
2022-08-25T06:05:39.513Z,54.14
2022-08-25T06:06:38.299Z,48.50
2022-08-25T06:07:38.318Z,45.12
2022-08-25T06:08:38.289Z,48.50
2022-08-25T06:09:38.286Z,48.02
2022-08-25T06:10:38.279Z,48.98
2022-08-25T06:11:38.272Z,50.92
2022-08-25T06:12:38.293Z,51.24
2022-08-25T06:13:38.257Z,51.72
2022-08-25T06:14:38.247Z,51.08
2022-08-25T06:15:38.242Z,51.24
2022-08-25T06:16:38.281Z,50.76
2022-08-25T06:17:38.256Z,53.66
2022-08-25T06:18:38.224Z,48.66
2022-08-25T06:19:38.214Z,52.53
2022-08-25T06:20:38.209Z,48.18
2022-08-25T06:21:38.200Z,49.79
2022-08-25T06:22:38.223Z,51.08
2022-08-25T06:23:38.189Z,52.21
2022-08-25T06:24:38.186Z,52.53
2022-08-25T06:25:38.176Z,52.37
2022-08-25T06:26:38.170Z,52.37
2022-08-25T06:27:38.187Z,48.82
2022-08-25T06:28:38.161Z,50.92
2022-08-25T06:29:38.149Z,53.66
2022-08-25T06:30:38.144Z,48.66
2022-08-25T06:31:38.215Z,49.79
2022-08-25T06:32:38.151Z,52.21
2022-08-25T06:33:38.125Z,52.69
2022-08-25T06:34:38.117Z,49.15
2022-08-25T06:35:38.117Z,49.63
2022-08-25T06:36:38.106Z,48.66
2022-08-25T06:37:38.124Z,49.47
2022-08-25T06:38:38.089Z,47.37
2022-08-25T06:39:38.085Z,44.31
2022-08-25T06:40:38.076Z,49.15
2022-08-25T06:41:38.071Z,48.34
2022-08-25T06:42:38.089Z,47.70
2022-08-25T06:43:38.057Z,55.27
2022-08-25T06:44:38.052Z,51.08
2022-08-25T06:45:38.078Z,48.82
2022-08-25T06:46:38.062Z,48.82
2022-08-25T06:47:38.033Z,53.82
2022-08-25T06:48:38.055Z,48.98
2022-08-25T06:49:38.027Z,48.50
2022-08-25T06:50:38.053Z,45.44
2022-08-25T06:51:38.012Z,49.31
2022-08-25T06:52:38.001Z,49.15
2022-08-25T06:53:38.020Z,46.41
2022-08-25T06:54:37.990Z,47.05
2022-08-25T06:55:37.985Z,45.92
2022-08-25T06:56:37.975Z,51.88
2022-08-25T06:57:37.974Z,55.75
2022-08-25T06:58:37.989Z,56.88
2022-08-25T06:59:37.955Z,55.75
2022-08-25T07:00:37.981Z,46.89
2022-08-25T07:01:38.075Z,47.21
2022-08-25T07:02:37.969Z,47.53
2022-08-25T07:03:37.964Z,53.17
2022-08-25T07:04:37.931Z,47.21
2022-08-25T07:05:43.762Z,48.50
2022-08-25T07:06:39.916Z,46.57
2022-08-25T07:07:44.080Z,51.56
2022-08-25T07:08:38.932Z,45.76
2022-08-25T07:09:39.270Z,46.73
2022-08-25T07:10:38.896Z,50.11
2022-08-25T07:11:37.894Z,53.66
2022-08-25T07:12:37.911Z,46.57
2022-08-25T07:13:37.881Z,48.34
2022-08-25T07:14:37.877Z,51.72
2022-08-25T07:15:37.868Z,52.69
2022-08-25T07:16:37.918Z,50.11
2022-08-25T07:17:37.883Z,49.15
2022-08-25T07:18:37.850Z,48.82
2022-08-25T07:19:37.844Z,50.27
2022-08-25T07:20:37.840Z,49.79
2022-08-25T07:21:37.834Z,48.98
2022-08-25T07:22:37.862Z,44.96
2022-08-25T07:23:37.825Z,46.41
2022-08-25T07:24:37.818Z,47.86
2022-08-25T07:25:37.813Z,49.79
2022-08-25T07:26:38.983Z,56.40
2022-08-25T07:27:37.833Z,50.43
2022-08-25T07:28:37.792Z,52.37
2022-08-25T07:29:42.233Z,50.11
2022-08-25T07:30:37.779Z,55.59
2022-08-25T07:31:38.011Z,48.82
2022-08-25T07:32:37.772Z,49.79
2022-08-25T07:33:37.789Z,56.56
2022-08-25T07:34:37.762Z,50.11
2022-08-25T07:35:38.012Z,49.79
2022-08-25T07:36:37.746Z,53.33
2022-08-25T07:37:50.548Z,54.95
2022-08-25T07:38:39.759Z,51.24
2022-08-25T07:39:37.729Z,50.11
2022-08-25T07:40:37.720Z,53.98
2022-08-25T07:41:38.714Z,50.76
2022-08-25T07:42:37.708Z,51.56
2022-08-25T07:43:37.725Z,58.97
2022-08-25T07:44:37.697Z,52.69
2022-08-25T07:45:37.690Z,53.50
2022-08-25T07:46:38.760Z,53.66
2022-08-25T07:47:37.677Z,56.40
2022-08-25T07:48:37.695Z,52.85
2022-08-25T07:49:39.931Z,58.17
2022-08-25T07:50:37.656Z,50.27
2022-08-25T07:51:37.688Z,54.95
2022-08-25T07:52:38.744Z,54.46
2022-08-25T07:53:37.667Z,53.98
2022-08-25T07:54:38.351Z,50.27
2022-08-25T07:55:37.623Z,50.27
2022-08-25T07:56:37.620Z,58.97
2022-08-25T07:57:37.615Z,57.69
2022-08-25T07:58:37.630Z,47.05
2022-08-25T07:59:39.752Z,54.14
2022-08-25T08:00:37.597Z,54.62
2022-08-25T08:01:38.598Z,49.79
2022-08-25T08:02:37.619Z,55.27
2022-08-25T08:03:50.041Z,52.53
2022-08-25T08:04:39.570Z,50.43
2022-08-25T08:05:37.553Z,55.91
2022-08-25T08:06:38.555Z,55.59
2022-08-25T08:07:43.389Z,53.50
2022-08-25T08:08:38.571Z,53.17
2022-08-25T08:09:37.542Z,50.11
2022-08-25T08:10:53.843Z,51.40
2022-08-25T08:11:42.538Z,57.85
2022-08-25T08:12:38.544Z,50.92
2022-08-25T08:13:41.290Z,50.76
2022-08-25T08:14:38.507Z,49.47
2022-08-25T08:15:38.500Z,44.63
2022-08-25T08:16:37.534Z,52.85
2022-08-25T08:17:37.510Z,56.07
2022-08-25T08:18:37.484Z,54.14
2022-08-25T08:19:39.849Z,47.21
2022-08-25T08:20:42.380Z,58.17
2022-08-25T08:21:38.464Z,53.01
2022-08-25T08:22:37.482Z,52.53
2022-08-25T08:23:37.455Z,53.82
2022-08-25T08:24:44.592Z,55.91
2022-08-25T08:25:39.435Z,52.69
2022-08-25T08:26:57.742Z,47.53
2022-08-25T08:27:39.449Z,48.82
2022-08-25T08:28:37.418Z,46.25
2022-08-25T08:29:37.416Z,51.08
2022-08-25T08:30:37.427Z,54.46
2022-08-25T08:31:37.499Z,53.98
2022-08-25T08:33:08.137Z,53.82
2022-08-25T08:33:40.683Z,53.17
2022-08-25T08:34:37.416Z,46.57
2022-08-25T08:35:37.375Z,48.66
2022-08-25T08:36:37.372Z,49.15
2022-08-25T08:37:37.388Z,51.24
2022-08-25T08:38:37.355Z,53.17
2022-08-25T08:39:37.344Z,46.41
2022-08-25T08:40:37.371Z,44.96
2022-08-25T08:42:07.365Z,49.95
2022-08-25T08:42:39.349Z,52.53
2022-08-25T08:43:37.319Z,57.04
2022-08-25T08:44:37.309Z,53.82
2022-08-25T08:45:40.523Z,47.21
2022-08-25T08:46:38.389Z,50.27
2022-08-25T08:47:37.312Z,50.43
2022-08-25T08:48:37.282Z,58.33
2022-08-25T08:49:37.280Z,49.79
2022-08-25T08:50:37.358Z,44.31
2022-08-25T08:51:37.264Z,47.37
2022-08-25T08:52:37.276Z,46.41
2022-08-25T08:53:37.246Z,47.86
2022-08-25T08:54:37.240Z,52.69
2022-08-25T08:55:37.239Z,52.21
2022-08-25T08:56:37.226Z,52.05
2022-08-25T08:57:37.311Z,53.82
2022-08-25T08:58:37.213Z,47.70
2022-08-25T08:59:37.207Z,58.65
2022-08-25T09:00:37.200Z,49.47
2022-08-25T09:01:37.257Z,51.40
2022-08-25T09:02:49.999Z,49.15
2022-08-25T09:03:39.434Z,52.53
2022-08-25T09:04:37.169Z,54.79
2022-08-25T09:05:41.829Z,44.31
2022-08-25T09:06:39.154Z,52.53
2022-08-25T09:07:37.148Z,48.82
2022-08-25T09:08:38.167Z,47.53
2022-08-25T09:09:38.140Z,49.63
2022-08-25T09:10:37.129Z,49.47
2022-08-25T09:11:37.123Z,52.53
2022-08-25T09:12:37.129Z,56.07
2022-08-25T09:13:37.126Z,74.28
2022-08-25T09:14:38.100Z,77.83
2022-08-25T09:15:40.951Z,63.33
2022-08-25T09:16:37.130Z,51.72
2022-08-25T09:17:37.074Z,55.59
2022-08-25T09:18:41.013Z,50.11
2022-08-25T09:19:41.975Z,51.56
2022-08-25T09:20:37.050Z,52.53
2022-08-25T09:21:37.040Z,54.14
2022-08-25T09:22:37.039Z,47.37
2022-08-25T09:23:37.058Z,51.24
2022-08-25T09:24:37.028Z,44.96
2022-08-25T09:25:53.153Z,54.46
2022-08-25T09:26:39.016Z,53.66
2022-08-25T09:27:37.030Z,48.66
2022-08-25T09:28:37.002Z,53.17
2022-08-25T09:29:36.994Z,50.11
2022-08-25T09:30:36.985Z,47.37
2022-08-25T09:31:37.034Z,51.72
2022-08-25T09:32:37.001Z,51.72
2022-08-25T09:33:36.956Z,59.78
2022-08-25T09:34:37.955Z,46.73
2022-08-25T09:35:36.952Z,46.89
2022-08-25T09:36:37.831Z,49.47
2022-08-25T09:37:37.975Z,55.43
2022-08-25T09:38:36.930Z,45.92
2022-08-25T09:39:36.925Z,50.11
2022-08-25T09:40:36.919Z,47.05
2022-08-25T09:41:36.906Z,56.56
2022-08-25T09:42:36.927Z,52.21
2022-08-25T09:43:36.892Z,43.99
2022-08-25T09:44:36.894Z,43.34
2022-08-25T09:45:36.877Z,48.02
2022-08-25T09:46:36.907Z,54.30
2022-08-25T09:47:37.047Z,50.60
2022-08-25T09:48:39.707Z,52.21
2022-08-25T09:49:37.850Z,53.50
2022-08-25T09:50:36.844Z,54.62
2022-08-25T09:51:42.425Z,54.95
2022-08-25T09:52:38.857Z,46.73
2022-08-25T09:53:36.827Z,45.28
2022-08-25T09:54:43.926Z,48.98
2022-08-25T09:55:37.810Z,53.50
2022-08-25T09:56:36.805Z,49.47
2022-08-25T09:57:36.802Z,49.95
2022-08-25T09:58:36.814Z,43.34
2022-08-25T09:59:36.807Z,56.56
2022-08-25T10:00:36.786Z,55.27
2022-08-25T10:01:36.802Z,54.46
2022-08-25T10:02:37.445Z,53.01
2022-08-25T10:03:36.949Z,53.66
2022-08-25T10:04:36.750Z,46.73
2022-08-25T10:05:36.743Z,49.79
2022-08-25T10:06:36.734Z,53.82
2022-08-25T10:07:36.736Z,54.30
2022-08-25T10:08:36.766Z,51.08
2022-08-25T10:09:36.713Z,52.05
2022-08-25T10:10:36.704Z,54.14
2022-08-25T10:11:36.696Z,49.95
2022-08-25T10:12:36.690Z,55.59
2022-08-25T10:13:37.705Z,47.53
2022-08-25T10:14:37.357Z,52.53
2022-08-25T10:15:36.689Z,53.98
2022-08-25T10:16:36.802Z,52.37
2022-08-25T10:17:36.655Z,51.24
2022-08-25T10:18:36.672Z,55.43
2022-08-25T10:19:36.654Z,46.25
2022-08-25T10:20:36.636Z,41.73
2022-08-25T10:21:37.625Z,52.85
2022-08-25T10:22:36.623Z,46.08
2022-08-25T10:23:36.634Z,46.41
2022-08-25T10:24:36.600Z,54.46
2022-08-25T10:25:36.600Z,52.53
2022-08-25T10:26:36.590Z,45.76
2022-08-25T10:27:36.579Z,41.73
2022-08-25T10:28:36.602Z,54.95
2022-08-25T10:29:36.569Z,51.40
2022-08-25T10:30:36.612Z,46.25
2022-08-25T10:31:36.564Z,48.02
2022-08-25T10:32:36.550Z,48.82
2022-08-25T10:33:36.560Z,54.95
2022-08-25T10:34:36.529Z,48.98
2022-08-25T10:35:36.525Z,52.05
2022-08-25T10:36:36.521Z,47.86
2022-08-25T10:37:36.516Z,42.38
2022-08-25T10:38:36.624Z,49.47
2022-08-25T10:39:40.554Z,60.10
2022-08-25T10:40:36.531Z,52.53
2022-08-25T10:41:36.483Z,49.95
2022-08-25T10:42:36.479Z,47.86
2022-08-25T10:43:36.491Z,46.89
2022-08-25T10:44:36.461Z,51.88
2022-08-25T10:45:36.453Z,58.01
2022-08-25T10:46:36.529Z,49.95
2022-08-25T10:47:36.438Z,48.98
2022-08-25T10:48:36.458Z,53.50
2022-08-25T10:49:36.425Z,47.86
2022-08-25T10:50:36.418Z,52.69
2022-08-25T10:51:36.409Z,50.11
2022-08-25T10:52:36.400Z,46.25
2022-08-25T10:53:36.418Z,51.72
2022-08-25T10:54:36.390Z,53.66
2022-08-25T10:55:40.310Z,51.56
2022-08-25T10:56:36.951Z,49.47
2022-08-25T10:57:36.375Z,51.72
2022-08-25T10:58:36.383Z,54.14
2022-08-25T10:59:36.347Z,51.08
2022-08-25T11:00:36.343Z,50.11
2022-08-25T11:01:43.823Z,51.08
2022-08-25T11:02:38.324Z,50.76
2022-08-25T11:03:36.354Z,43.34
2022-08-25T11:04:36.403Z,42.38
2022-08-25T11:05:36.357Z,46.89
2022-08-25T11:06:37.302Z,54.79
2022-08-25T11:07:36.296Z,56.40
2022-08-25T11:08:36.309Z,52.37
2022-08-25T11:09:36.559Z,50.60
2022-08-25T11:10:36.265Z,54.46
2022-08-25T11:11:36.261Z,55.59
2022-08-25T11:12:36.249Z,53.33
2022-08-25T11:13:36.266Z,52.69
2022-08-25T11:14:36.271Z,52.37
2022-08-25T11:15:36.230Z,48.02
2022-08-25T11:16:36.394Z,45.28
2022-08-25T11:17:36.217Z,45.92
2022-08-25T11:18:36.207Z,54.14
2022-08-25T11:19:36.229Z,52.85
2022-08-25T11:20:36.202Z,53.17
2022-08-25T11:21:36.186Z,46.08
2022-08-25T11:22:36.175Z,58.01
2022-08-25T11:23:36.171Z,53.17
2022-08-25T11:24:36.309Z,59.46
2022-08-25T11:25:36.150Z,50.76
2022-08-25T11:26:37.226Z,54.79
2022-08-25T11:27:37.139Z,57.52
2022-08-25T11:28:36.128Z,56.88
2022-08-25T11:29:36.150Z,56.07
2022-08-25T11:30:36.181Z,54.46
2022-08-25T11:31:36.104Z,47.70
2022-08-25T11:32:36.142Z,54.14
2022-08-25T11:33:36.092Z,55.11
2022-08-25T11:34:36.108Z,48.50
2022-08-25T11:35:37.080Z,51.56
2022-08-25T11:36:36.066Z,55.27
2022-08-25T11:37:36.060Z,49.31
2022-08-25T11:38:36.057Z,58.33
2022-08-25T11:39:36.078Z,51.56
2022-08-25T11:40:36.043Z,56.72
2022-08-25T11:41:36.034Z,52.21
2022-08-25T11:42:36.027Z,52.85
2022-08-25T11:43:36.024Z,49.31
2022-08-25T11:44:36.032Z,57.36
2022-08-25T11:45:36.001Z,54.62
2022-08-25T11:46:35.998Z,44.15
2022-08-25T11:47:35.987Z,47.37
2022-08-25T11:48:35.979Z,54.14
2022-08-25T11:49:35.998Z,51.40
2022-08-25T11:50:35.960Z,46.41
2022-08-25T11:51:36.367Z,49.31
2022-08-25T11:52:35.951Z,46.08
2022-08-25T11:53:35.940Z,51.72
2022-08-25T11:54:35.957Z,44.63
2022-08-25T11:55:35.949Z,54.46
2022-08-25T11:56:35.919Z,54.30
2022-08-25T11:57:35.913Z,52.53
2022-08-25T11:58:35.905Z,54.79
2022-08-25T11:59:35.924Z,44.31
2022-08-25T12:00:35.885Z,42.54
2022-08-25T12:01:35.877Z,49.47
2022-08-25T12:02:35.899Z,55.75
2022-08-25T12:03:35.863Z,52.69
2022-08-25T12:04:44.164Z,45.76
2022-08-25T12:05:36.879Z,48.34
2022-08-25T12:06:35.850Z,53.98
2022-08-25T12:07:35.833Z,50.43
2022-08-25T12:08:35.821Z,51.88
2022-08-25T12:09:35.815Z,49.31
2022-08-25T12:10:35.835Z,50.27
2022-08-25T12:11:35.800Z,56.07
2022-08-25T12:12:35.798Z,54.79
2022-08-25T12:13:35.782Z,56.24
2022-08-25T12:14:35.803Z,44.96
2022-08-25T12:15:35.771Z,54.79
2022-08-25T12:16:35.854Z,46.25
2022-08-25T12:17:35.749Z,49.31
2022-08-25T12:18:35.742Z,55.11
2022-08-25T12:19:35.761Z,52.37
2022-08-25T12:20:35.732Z,49.63
2022-08-25T12:21:35.715Z,43.18
2022-08-25T12:22:36.718Z,48.34
2022-08-25T12:23:35.713Z,40.61
2022-08-25T12:24:35.730Z,54.14
2022-08-25T12:25:35.698Z,52.85
2022-08-25T12:26:35.687Z,51.40
2022-08-25T12:27:35.682Z,49.47
2022-08-25T12:28:35.678Z,49.63
2022-08-25T12:29:35.693Z,46.25
2022-08-25T12:30:36.847Z,51.56
2022-08-25T12:31:35.653Z,49.95
2022-08-25T12:32:35.650Z,49.95
2022-08-25T12:33:35.680Z,53.50
2022-08-25T12:34:35.628Z,57.36
2022-08-25T12:35:35.651Z,48.98
2022-08-25T12:36:35.633Z,55.91
2022-08-25T12:37:35.608Z,54.79
2022-08-25T12:38:38.772Z,57.85
2022-08-25T12:39:36.593Z,50.27
2022-08-25T12:40:35.681Z,49.63
2022-08-25T12:41:35.576Z,46.25
2022-08-25T12:42:35.571Z,51.08
2022-08-25T12:43:37.834Z,56.07
2022-08-25T12:44:35.555Z,51.24
2022-08-25T12:45:35.661Z,50.76
2022-08-25T12:46:35.547Z,52.37
2022-08-25T12:47:35.537Z,44.47
2022-08-25T12:48:35.530Z,48.02
2022-08-25T12:49:35.521Z,55.59
2022-08-25T12:50:35.541Z,56.88
2022-08-25T12:51:35.513Z,52.21
2022-08-25T12:52:35.500Z,58.81